createdAt,value
2019-05-05T00:01:34.411Z,5.50
2019-05-05T00:05:44.853Z,5.40
2019-05-05T00:09:55.118Z,5.40
2019-05-05T00:14:17.438Z,5.40
2019-05-05T00:18:27.563Z,5.40
2019-05-05T00:22:36.333Z,5.40
2019-05-05T00:26:46.076Z,5.40
2019-05-05T00:30:55.383Z,5.30
2019-05-05T00:35:06.506Z,5.30
2019-05-05T00:39:15.118Z,5.30
2019-05-05T00:43:25.296Z,5.30
2019-05-05T00:52:06.648Z,5.30
2019-05-05T00:56:15.117Z,5.20
2019-05-05T01:05:11.664Z,5.00
2019-05-05T01:09:25.197Z,4.90
2019-05-05T01:13:35.178Z,4.80
2019-05-05T01:17:45.128Z,4.60
2019-05-05T01:21:54.407Z,4.50
2019-05-05T01:26:05.072Z,4.40
2019-05-05T01:30:15.813Z,4.50
2019-05-05T01:34:25.884Z,4.60
2019-05-05T01:42:54.643Z,4.80
2019-05-05T01:47:02.930Z,4.80
2019-05-05T01:51:11.386Z,4.70
2019-05-05T01:55:20.272Z,4.80
2019-05-05T01:59:29.207Z,4.80
2019-05-05T02:03:38.050Z,4.70
2019-05-05T02:07:46.526Z,4.70
2019-05-05T02:11:55.101Z,4.80
2019-05-05T02:16:04.592Z,4.80
2019-05-05T02:20:34.647Z,4.90
2019-05-05T02:24:44.392Z,4.80
2019-05-05T02:28:54.831Z,4.60
2019-05-05T02:33:06.277Z,4.60
2019-05-05T02:37:16.008Z,4.70
2019-05-05T02:41:25.564Z,4.70
2019-05-05T02:45:56.883Z,4.60
2019-05-05T02:50:07.464Z,4.70
2019-05-05T02:54:17.433Z,4.70
2019-05-05T02:58:28.040Z,4.70
2019-05-05T03:02:36.885Z,4.60
2019-05-05T03:06:48.766Z,4.60
2019-05-05T03:11:00.148Z,4.50
2019-05-05T03:15:10.868Z,4.30
2019-05-05T03:19:21.010Z,4.40
2019-05-05T03:23:29.499Z,4.40
2019-05-05T03:27:38.443Z,4.40
2019-05-05T03:32:11.488Z,4.40
2019-05-05T03:36:18.257Z,4.40
2019-05-05T03:40:28.432Z,4.40
2019-05-05T03:44:38.978Z,4.50
2019-05-05T03:48:47.435Z,4.50
2019-05-05T03:52:55.897Z,4.50
2019-05-05T03:57:10.490Z,4.40
2019-05-05T04:01:39.991Z,4.50
2019-05-05T04:05:50.444Z,4.50
2019-05-05T04:09:58.914Z,4.40
2019-05-05T04:14:07.523Z,4.50
2019-05-05T04:18:21.035Z,4.50
2019-05-05T04:22:31.134Z,4.50
2019-05-05T04:26:39.574Z,4.60
2019-05-05T04:30:48.042Z,4.50
2019-05-05T04:34:56.487Z,4.60
2019-05-05T04:39:06.877Z,4.60
2019-05-05T04:43:27.955Z,4.60
2019-05-05T04:47:38.155Z,4.60
2019-05-05T04:51:54.119Z,4.50
2019-05-05T04:56:04.226Z,4.50
2019-05-05T05:00:13.720Z,4.70
2019-05-05T05:04:40.311Z,4.70
2019-05-05T05:08:48.747Z,4.70
2019-05-05T05:12:57.211Z,4.70
2019-05-05T05:17:07.320Z,4.80
2019-05-05T05:21:16.047Z,4.80
2019-05-05T05:25:24.531Z,4.80
2019-05-05T05:29:34.573Z,5.00
2019-05-05T05:33:55.718Z,4.90
2019-05-05T05:38:04.618Z,5.00
2019-05-05T05:42:13.783Z,5.10
2019-05-05T05:46:39.203Z,5.30
2019-05-05T05:50:49.370Z,5.30
2019-05-05T05:54:57.843Z,5.40
2019-05-05T05:59:25.906Z,5.40
2019-05-05T06:03:34.450Z,5.40
2019-05-05T06:07:44.295Z,5.40
2019-05-05T06:11:54.181Z,5.50
2019-05-05T06:16:04.247Z,5.60
2019-05-05T06:20:14.515Z,5.70
2019-05-05T06:24:24.039Z,5.80
2019-05-05T06:28:34.241Z,5.90
2019-05-05T06:32:43.751Z,6.00
2019-05-05T06:36:53.745Z,6.00
2019-05-05T06:41:20.179Z,6.10
2019-05-05T06:45:30.296Z,6.20
2019-05-05T06:49:38.763Z,6.20
2019-05-05T06:53:47.192Z,6.20
2019-05-05T06:57:55.668Z,6.30
2019-05-05T07:02:04.419Z,6.50
2019-05-05T07:06:14.669Z,6.60
2019-05-05T07:10:24.471Z,6.90
2019-05-05T07:14:34.013Z,7.00
2019-05-05T07:18:44.620Z,7.30
2019-05-05T07:23:01.528Z,7.40
2019-05-05T07:27:04.721Z,7.60
2019-05-05T07:31:14.366Z,7.80
2019-05-05T07:35:24.902Z,7.90
2019-05-05T07:39:34.091Z,7.90
2019-05-05T07:43:43.751Z,8.10
2019-05-05T07:47:53.799Z,8.20
2019-05-05T07:52:04.048Z,8.30
2019-05-05T07:56:14.449Z,8.40
2019-05-05T08:00:24.084Z,8.60
2019-05-05T08:04:34.612Z,8.70
2019-05-05T08:08:44.357Z,8.80
2019-05-05T08:12:54.226Z,9.00
2019-05-05T08:17:04.521Z,9.20
2019-05-05T08:21:13.644Z,9.00
2019-05-05T08:25:45.360Z,9.00
2019-05-05T08:29:55.077Z,9.00
2019-05-05T08:34:03.955Z,8.90
2019-05-05T08:38:13.768Z,9.00
2019-05-05T08:42:24.677Z,9.20
2019-05-05T08:46:34.054Z,9.10
2019-05-05T08:51:01.944Z,9.20
2019-05-05T08:55:10.482Z,9.40
2019-05-05T08:59:19.427Z,9.40
2019-05-05T09:03:27.877Z,9.70
2019-05-05T09:07:36.359Z,9.90
2019-05-05T09:11:44.821Z,10.10
2019-05-05T09:15:54.388Z,10.00
2019-05-05T09:20:04.521Z,10.10
2019-05-05T09:24:17.679Z,10.20
2019-05-05T09:28:34.121Z,10.60
2019-05-05T09:32:43.838Z,10.60
2019-05-05T09:36:54.444Z,10.40
2019-05-05T09:41:03.771Z,10.40
2019-05-05T09:45:14.017Z,10.50
2019-05-05T09:49:24.647Z,10.60
2019-05-05T09:53:34.436Z,10.90
2019-05-05T09:57:43.802Z,11.20
2019-05-05T10:01:53.771Z,11.20
2019-05-05T10:06:04.702Z,11.40
2019-05-05T10:10:13.874Z,11.60
2019-05-05T10:14:22.477Z,11.60
2019-05-05T10:18:30.958Z,11.70
2019-05-05T10:22:39.419Z,11.80
2019-05-05T10:26:48.194Z,11.80
2019-05-05T10:30:56.668Z,11.70
2019-05-05T10:35:06.977Z,11.70
2019-05-05T10:39:33.490Z,11.90
2019-05-05T10:43:43.739Z,12.00
2019-05-05T10:47:52.680Z,12.30
2019-05-05T10:52:01.160Z,12.40
2019-05-05T10:56:10.197Z,12.50
2019-05-05T11:00:44.528Z,12.60
2019-05-05T11:04:54.623Z,12.40
2019-05-05T11:09:05.367Z,12.80
2019-05-05T11:13:13.922Z,12.70
2019-05-05T11:17:24.611Z,12.40
2019-05-05T11:21:34.171Z,12.40
2019-05-05T11:25:44.235Z,12.20
2019-05-05T11:30:14.298Z,12.00
2019-05-05T11:34:24.934Z,11.50
2019-05-05T11:38:33.992Z,11.30
2019-05-05T11:42:42.467Z,11.40
2019-05-05T11:46:50.957Z,11.30
2019-05-05T11:50:59.425Z,11.50
2019-05-05T11:55:11.669Z,11.70
2019-05-05T11:59:18.166Z,11.90
2019-05-05T12:03:26.650Z,12.20
2019-05-05T12:07:35.125Z,12.40
2019-05-05T12:11:43.911Z,12.50
2019-05-05T12:15:54.103Z,13.00
2019-05-05T12:20:04.825Z,13.40
2019-05-05T12:24:14.930Z,13.40
2019-05-05T12:28:25.061Z,13.40
2019-05-05T12:32:34.803Z,13.10
2019-05-05T12:36:44.551Z,13.00
2019-05-05T12:40:53.636Z,12.80
2019-05-05T12:45:04.568Z,12.70
2019-05-05T12:49:13.993Z,12.90
2019-05-05T12:53:23.806Z,12.70
2019-05-05T12:57:34.183Z,12.50
2019-05-05T13:01:44.144Z,12.20
2019-05-05T13:05:53.594Z,12.00
2019-05-05T13:10:04.686Z,11.80
2019-05-05T13:14:14.264Z,11.60
2019-05-05T13:18:24.539Z,11.90
2019-05-05T13:22:34.868Z,11.80
2019-05-05T13:31:01.522Z,11.60
2019-05-05T13:35:10.690Z,11.50
2019-05-05T13:39:19.154Z,11.80
2019-05-05T13:43:27.919Z,11.70
2019-05-05T13:47:36.385Z,12.10
2019-05-05T13:51:44.867Z,12.60
2019-05-05T13:55:58.376Z,12.90
2019-05-05T14:00:05.219Z,13.30
2019-05-05T14:04:13.701Z,13.50
2019-05-05T14:08:23.764Z,13.30
2019-05-05T14:12:34.398Z,12.90
2019-05-05T14:16:44.680Z,12.60
2019-05-05T14:21:13.931Z,12.40
2019-05-05T14:25:29.795Z,11.90
2019-05-05T14:29:49.802Z,11.60
2019-05-05T14:34:00.193Z,11.30
2019-05-05T14:38:10.283Z,11.00
2019-05-05T14:42:18.767Z,10.80
2019-05-05T14:46:27.251Z,10.90
2019-05-05T14:50:35.708Z,10.90
2019-05-05T14:54:44.192Z,10.80
2019-05-05T14:58:54.325Z,10.80
2019-05-05T15:03:03.654Z,10.90
2019-05-05T15:07:14.423Z,10.90
2019-05-05T15:11:36.820Z,10.90
2019-05-05T15:15:45.408Z,10.90
2019-05-05T15:19:54.254Z,11.00
2019-05-05T15:24:02.766Z,11.20
2019-05-05T15:28:13.709Z,11.20
2019-05-05T15:32:23.810Z,11.10
2019-05-05T15:36:33.452Z,11.30
2019-05-05T15:40:44.482Z,11.50
2019-05-05T15:44:54.260Z,11.50
2019-05-05T15:49:04.237Z,11.50
2019-05-05T15:53:14.398Z,11.70
2019-05-05T15:57:24.204Z,11.90
2019-05-05T16:01:34.534Z,12.10
2019-05-05T16:05:43.614Z,12.00
2019-05-05T16:09:53.730Z,12.00
2019-05-05T16:14:03.882Z,12.10
2019-05-05T16:18:23.030Z,12.00
2019-05-05T16:22:35.603Z,11.90
2019-05-05T16:26:44.293Z,11.90
2019-05-05T16:30:53.351Z,11.80
2019-05-05T16:35:23.729Z,11.80
2019-05-05T16:39:33.571Z,11.70
2019-05-05T16:43:44.110Z,11.80
2019-05-05T16:47:54.393Z,11.70
2019-05-05T16:52:04.182Z,11.50
2019-05-05T16:56:14.370Z,11.30
2019-05-05T17:00:25.666Z,11.00
2019-05-05T17:04:35.511Z,10.80
2019-05-05T17:08:44.361Z,10.80
2019-05-05T17:12:53.825Z,10.70
2019-05-05T17:17:19.306Z,10.60
2019-05-05T17:21:29.801Z,10.70
2019-05-05T17:25:38.388Z,10.80
2019-05-05T17:29:47.134Z,10.80
2019-05-05T17:33:55.859Z,10.70
2019-05-05T17:38:08.188Z,10.70
2019-05-05T17:42:30.496Z,10.60
2019-05-05T17:51:21.122Z,10.80
2019-05-05T17:55:31.239Z,10.70
2019-05-05T17:59:39.715Z,10.70
2019-05-05T18:03:48.172Z,10.60
2019-05-05T18:07:56.626Z,10.60
2019-05-05T18:12:23.663Z,10.50
2019-05-05T18:16:33.857Z,10.30
2019-05-05T18:20:44.768Z,10.20
2019-05-05T18:24:53.993Z,10.10
2019-05-05T18:29:03.827Z,10.10
2019-05-05T18:33:13.717Z,10.00
2019-05-05T18:37:24.054Z,10.00
2019-05-05T18:41:50.423Z,10.00
2019-05-05T18:46:04.565Z,9.90
2019-05-05T18:50:13.596Z,9.90
2019-05-05T18:54:22.263Z,9.80
2019-05-05T18:58:34.032Z,9.70
2019-05-05T19:02:44.319Z,9.70
2019-05-05T19:06:54.705Z,9.60
2019-05-05T19:11:03.704Z,9.70
2019-05-05T19:15:13.598Z,9.60
2019-05-05T19:19:24.000Z,9.60
2019-05-05T19:23:33.805Z,9.50
2019-05-05T19:27:43.411Z,9.40
2019-05-05T19:31:51.890Z,9.40
2019-05-05T19:36:00.599Z,9.30
2019-05-05T19:40:10.976Z,9.20
2019-05-05T19:44:19.460Z,9.10
2019-05-05T19:48:28.015Z,9.00
2019-05-05T19:52:36.457Z,9.00
2019-05-05T19:56:45.015Z,8.90
2019-05-05T20:00:55.110Z,8.80
2019-05-05T20:05:04.694Z,8.70
2019-05-05T20:09:14.216Z,8.60
2019-05-05T20:13:23.531Z,8.50
2019-05-05T20:17:36.620Z,8.50
2019-05-05T20:21:45.084Z,8.50
2019-05-05T20:25:53.774Z,8.40
2019-05-05T20:30:06.633Z,8.30
2019-05-05T20:34:16.934Z,8.30
2019-05-05T20:38:33.306Z,8.10
2019-05-05T20:42:44.619Z,8.00
2019-05-05T20:46:53.535Z,8.00
2019-05-05T20:51:02.263Z,8.00
2019-05-05T20:55:10.834Z,7.90
2019-05-05T20:59:30.053Z,7.90
2019-05-05T21:03:29.515Z,7.90
2019-05-05T21:07:37.987Z,8.00
2019-05-05T21:11:46.542Z,8.00
2019-05-05T21:15:55.223Z,7.90
2019-05-05T21:20:06.587Z,7.90
2019-05-05T21:24:15.050Z,7.90
2019-05-05T21:28:24.131Z,8.00
2019-05-05T21:32:34.019Z,8.10
2019-05-05T21:36:44.817Z,8.20
2019-05-05T21:40:53.179Z,8.20
2019-05-05T21:45:01.916Z,8.30
2019-05-05T21:49:10.475Z,8.30
2019-05-05T21:53:38.973Z,8.30
2019-05-05T21:57:49.087Z,8.30
2019-05-05T22:01:57.660Z,8.20
2019-05-05T22:06:06.506Z,8.20
2019-05-05T22:10:14.974Z,8.20
2019-05-05T22:14:23.439Z,8.20
2019-05-05T22:18:31.878Z,8.20
2019-05-05T22:22:41.998Z,8.30
2019-05-05T22:26:50.518Z,8.20
2019-05-05T22:30:58.981Z,8.20
2019-05-05T22:35:07.617Z,8.10
2019-05-05T22:39:17.045Z,8.10
2019-05-05T22:43:26.167Z,8.10
2019-05-05T22:47:34.685Z,8.00
2019-05-05T22:51:44.749Z,8.00
2019-05-05T22:55:53.430Z,7.90
2019-05-05T23:00:03.781Z,7.80
2019-05-05T23:08:35.124Z,7.80
2019-05-05T23:12:44.053Z,7.80
2019-05-05T23:16:54.285Z,7.70
2019-05-05T23:21:06.859Z,7.70
2019-05-05T23:29:47.431Z,7.50
2019-05-05T23:33:55.895Z,7.40
2019-05-05T23:38:04.375Z,7.30
2019-05-05T23:42:14.693Z,7.20
2019-05-05T23:46:24.219Z,7.10
2019-05-05T23:50:33.850Z,7.10
2019-05-05T23:54:44.598Z,7.00
2019-05-05T23:58:54.892Z,6.90
